sensor_id;sensor_type;location;lat;lon;timestamp;pressure;altitude;pressure_sealevel;temperature;humidity
83118;BME280;73000;51.784;4.660;2023-12-04T00:03:37;101353.28;;;2.00;82.23
83118;BME280;73000;51.784;4.660;2023-12-04T00:07:00;101375.78;;;2.20;82.32
83118;BME280;73000;51.784;4.660;2023-12-04T00:13:25;101385.69;;;2.21;82.82
83118;BME280;73000;51.784;4.660;2023-12-04T00:44:04;101296.66;;;1.95;81.57
83118;BME280;73000;51.784;4.660;2023-12-04T01:01:53;101284.22;;;2.06;81.04
83118;BME280;73000;51.784;4.660;2023-12-04T01:05:35;101326.53;;;2.39;81.57
83118;BME280;73000;51.784;4.660;2023-12-04T01:12:39;101279.84;;;2.23;80.50
83118;BME280;73000;51.784;4.660;2023-12-04T02:58:11;101187.41;;;2.51;76.31
83118;BME280;73000;51.784;4.660;2023-12-04T03:01:53;101184.91;;;2.49;75.81
83118;BME280;73000;51.784;4.660;2023-12-04T04:56:39;101000.03;;;2.27;73.63
83118;BME280;73000;51.784;4.660;2023-12-04T05:43:54;101000.56;;;2.76;72.50
83118;BME280;73000;51.784;4.660;2023-12-04T06:04:41;100976.81;;;2.88;71.64
83118;BME280;73000;51.784;4.660;2023-12-04T06:07:09;100946.06;;;2.70;71.74
83118;BME280;73000;51.784;4.660;2023-12-04T06:09:34;100949.50;;;2.77;71.17
83118;BME280;73000;51.784;4.660;2023-12-04T06:12:09;100945.94;;;2.76;72.37
83118;BME280;73000;51.784;4.660;2023-12-04T06:14:35;100932.41;;;2.81;72.30
83118;BME280;73000;51.784;4.660;2023-12-04T06:17:04;100960.69;;;2.98;72.52
83118;BME280;73000;51.784;4.660;2023-12-04T06:19:34;100958.31;;;2.90;71.68
83118;BME280;73000;51.784;4.660;2023-12-04T06:22:00;100917.56;;;2.66;72.26
83118;BME280;73000;51.784;4.660;2023-12-04T06:24:28;100960.56;;;2.93;71.75
83118;BME280;73000;51.784;4.660;2023-12-04T06:26:57;100952.00;;;2.90;72.82
83118;BME280;73000;51.784;4.660;2023-12-04T06:29:23;100942.25;;;2.82;72.76
83118;BME280;73000;51.784;4.660;2023-12-04T06:31:49;100943.09;;;2.83;70.71
83118;BME280;73000;51.784;4.660;2023-12-04T06:34:15;100937.63;;;2.83;71.97
83118;BME280;73000;51.784;4.660;2023-12-04T06:36:40;100950.72;;;2.92;72.49
83118;BME280;73000;51.784;4.660;2023-12-04T06:39:12;100930.16;;;2.90;72.75
83118;BME280;73000;51.784;4.660;2023-12-04T06:41:39;100913.91;;;2.83;71.84
83118;BME280;73000;51.784;4.660;2023-12-04T06:44:08;100922.47;;;2.98;71.57
83118;BME280;73000;51.784;4.660;2023-12-04T06:46:41;100904.16;;;2.87;71.64
83118;BME280;73000;51.784;4.660;2023-12-04T06:49:17;100921.75;;;2.91;70.88
83118;BME280;73000;51.784;4.660;2023-12-04T06:51:50;100909.50;;;2.94;72.13
83118;BME280;73000;51.784;4.660;2023-12-04T06:54:19;100879.81;;;2.74;70.63
83118;BME280;73000;51.784;4.660;2023-12-04T06:56:47;100869.47;;;2.65;69.60
83118;BME280;73000;51.784;4.660;2023-12-04T06:59:15;100881.13;;;2.72;71.63
83118;BME280;73000;51.784;4.660;2023-12-04T07:01:41;100893.22;;;2.76;70.98
83118;BME280;73000;51.784;4.660;2023-12-04T07:04:10;100912.22;;;2.94;71.19
83118;BME280;73000;51.784;4.660;2023-12-04T07:06:39;100896.69;;;2.83;69.98
83118;BME280;73000;51.784;4.660;2023-12-04T07:09:06;100883.38;;;2.75;69.52
83118;BME280;73000;51.784;4.660;2023-12-04T07:11:39;100892.06;;;2.83;69.07
83118;BME280;73000;51.784;4.660;2023-12-04T07:14:13;100856.06;;;2.75;70.85
83118;BME280;73000;51.784;4.660;2023-12-04T07:16:41;100842.41;;;2.63;70.48
83118;BME280;73000;51.784;4.660;2023-12-04T07:19:18;100849.88;;;2.68;69.39
83118;BME280;73000;51.784;4.660;2023-12-04T07:21:47;100868.28;;;2.84;69.92
83118;BME280;73000;51.784;4.660;2023-12-04T07:24:16;100859.28;;;2.72;70.27
83118;BME280;73000;51.784;4.660;2023-12-04T07:26:41;100885.03;;;2.99;69.89
83118;BME280;73000;51.784;4.660;2023-12-04T07:29:10;100840.63;;;2.69;69.75
83118;BME280;73000;51.784;4.660;2023-12-04T07:31:37;100882.31;;;2.87;68.36
83118;BME280;73000;51.784;4.660;2023-12-04T07:34:11;100879.47;;;3.05;70.85
83118;BME280;73000;51.784;4.660;2023-12-04T07:36:40;100870.66;;;2.92;70.20
83118;BME280;73000;51.784;4.660;2023-12-04T07:39:10;100843.84;;;2.77;69.67
83118;BME280;73000;51.784;4.660;2023-12-04T07:41:36;100857.97;;;2.86;70.00
83118;BME280;73000;51.784;4.660;2023-12-04T07:44:02;100876.72;;;3.05;69.88
83118;BME280;73000;51.784;4.660;2023-12-04T07:46:39;100826.03;;;2.75;69.82
83118;BME280;73000;51.784;4.660;2023-12-04T07:49:05;100881.59;;;3.03;68.66
83118;BME280;73000;51.784;4.660;2023-12-04T07:51:33;100881.59;;;3.03;71.09
83118;BME280;73000;51.784;4.660;2023-12-04T07:54:01;100885.25;;;2.97;70.26
83118;BME280;73000;51.784;4.660;2023-12-04T07:56:29;100896.66;;;3.06;70.05
83118;BME280;73000;51.784;4.660;2023-12-04T07:58:55;100898.81;;;3.04;69.19
83118;BME280;73000;51.784;4.660;2023-12-04T08:01:23;100884.22;;;2.98;70.02
83118;BME280;73000;51.784;4.660;2023-12-04T08:03:54;100854.41;;;2.74;69.42
83118;BME280;73000;51.784;4.660;2023-12-04T08:06:23;100891.81;;;3.08;69.19
83118;BME280;73000;51.784;4.660;2023-12-04T08:08:51;100871.25;;;2.94;69.15
83118;BME280;73000;51.784;4.660;2023-12-04T08:11:19;100836.34;;;2.73;70.12
83118;BME280;73000;51.784;4.660;2023-12-04T08:13:48;100883.63;;;3.08;69.99
83118;BME280;73000;51.784;4.660;2023-12-04T08:16:21;100889.41;;;3.11;69.92
83118;BME280;73000;51.784;4.660;2023-12-04T08:18:46;100859.16;;;2.90;69.80
83118;BME280;73000;51.784;4.660;2023-12-04T08:21:17;100820.19;;;2.71;68.58
83118;BME280;73000;51.784;4.660;2023-12-04T08:23:43;100845.25;;;2.91;69.20
83118;BME280;73000;51.784;4.660;2023-12-04T08:26:09;100846.69;;;2.94;68.97
83118;BME280;73000;51.784;4.660;2023-12-04T08:28:34;100837.16;;;2.96;68.79
83118;BME280;73000;51.784;4.660;2023-12-04T08:31:09;100868.88;;;3.09;68.38
83118;BME280;73000;51.784;4.660;2023-12-04T08:33:35;100857.72;;;3.10;67.81
83118;BME280;73000;51.784;4.660;2023-12-04T08:36:00;100848.06;;;3.19;69.36
83118;BME280;73000;51.784;4.660;2023-12-04T08:38:29;100834.53;;;3.01;67.60
83118;BME280;73000;51.784;4.660;2023-12-04T08:40:54;100823.41;;;2.91;68.45
83118;BME280;73000;51.784;4.660;2023-12-04T08:43:20;100834.66;;;3.06;69.13
83118;BME280;73000;51.784;4.660;2023-12-04T08:45:49;100843.78;;;3.23;68.40
83118;BME280;73000;51.784;4.660;2023-12-04T08:48:14;100853.75;;;3.18;67.87
83118;BME280;73000;51.784;4.660;2023-12-04T08:50:43;100815.06;;;3.09;70.09
83118;BME280;73000;51.784;4.660;2023-12-04T08:53:11;100831.66;;;3.19;68.72
83118;BME280;73000;51.784;4.660;2023-12-04T08:55:37;100823.69;;;3.18;68.27
83118;BME280;73000;51.784;4.660;2023-12-04T08:58:02;100825.25;;;3.14;68.36
83118;BME280;73000;51.784;4.660;2023-12-04T09:00:30;100819.31;;;3.17;68.40
83118;BME280;73000;51.784;4.660;2023-12-04T09:03:07;100800.34;;;3.10;69.62
83118;BME280;73000;51.784;4.660;2023-12-04T09:05:33;100814.22;;;3.09;67.66
83118;BME280;73000;51.784;4.660;2023-12-04T09:08:06;100807.94;;;3.08;67.52
83118;BME280;73000;51.784;4.660;2023-12-04T09:10:32;100810.56;;;3.15;68.59
83118;BME280;73000;51.784;4.660;2023-12-04T09:12:58;100832.38;;;3.26;68.19
83118;BME280;73000;51.784;4.660;2023-12-04T09:15:25;100802.53;;;3.25;69.55
83118;BME280;73000;51.784;4.660;2023-12-04T09:17:54;100809.47;;;3.16;67.88
83118;BME280;73000;51.784;4.660;2023-12-04T09:20:19;100825.81;;;3.39;68.94
83118;BME280;73000;51.784;4.660;2023-12-04T09:22:45;100826.28;;;3.36;67.95
83118;BME280;73000;51.784;4.660;2023-12-04T09:25:14;100797.06;;;3.25;68.05
83118;BME280;73000;51.784;4.660;2023-12-04T09:27:40;100768.25;;;3.06;67.92
83118;BME280;73000;51.784;4.660;2023-12-04T09:30:08;100773.72;;;3.06;68.18
83118;BME280;73000;51.784;4.660;2023-12-04T09:32:34;100774.28;;;3.19;66.91
83118;BME280;73000;51.784;4.660;2023-12-04T09:34:59;100783.03;;;3.33;67.98
83118;BME280;73000;51.784;4.660;2023-12-04T09:37:25;100777.56;;;3.33;68.21
83118;BME280;73000;51.784;4.660;2023-12-04T09:39:53;100813.00;;;3.56;68.32
83118;BME280;73000;51.784;4.660;2023-12-04T09:42:22;100776.81;;;3.49;68.32
83118;BME280;73000;51.784;4.660;2023-12-04T09:44:48;100773.16;;;3.43;67.04
83118;BME280;73000;51.784;4.660;2023-12-04T09:47:17;100777.97;;;3.53;67.51
83118;BME280;73000;51.784;4.660;2023-12-04T09:49:45;100785.25;;;3.47;66.46
83118;BME280;73000;51.784;4.660;2023-12-04T09:52:11;100800.50;;;3.60;66.33
83118;BME280;73000;51.784;4.660;2023-12-04T09:54:37;100785.31;;;3.64;68.10
83118;BME280;73000;51.784;4.660;2023-12-04T09:57:08;100801.19;;;3.67;66.85
83118;BME280;73000;51.784;4.660;2023-12-04T09:59:37;100794.44;;;3.69;66.85
83118;BME280;73000;51.784;4.660;2023-12-04T10:02:04;100781.13;;;3.61;66.33
83118;BME280;73000;51.784;4.660;2023-12-04T10:04:32;100789.03;;;3.74;67.51
83118;BME280;73000;51.784;4.660;2023-12-04T10:06:58;100773.53;;;3.63;66.40
83118;BME280;73000;51.784;4.660;2023-12-04T10:09:24;100778.16;;;3.63;66.32
83118;BME280;73000;51.784;4.660;2023-12-04T10:11:50;100769.81;;;3.69;67.93
83118;BME280;73000;51.784;4.660;2023-12-04T10:14:21;100774.38;;;3.80;67.57
83118;BME280;73000;51.784;4.660;2023-12-04T10:16:47;100758.28;;;3.67;66.16
83118;BME280;73000;51.784;4.660;2023-12-04T10:19:24;100759.41;;;3.83;67.47
83118;BME280;73000;51.784;4.660;2023-12-04T10:21:59;100760.44;;;3.82;66.95
83118;BME280;73000;51.784;4.660;2023-12-04T10:24:32;100763.84;;;3.89;66.24
83118;BME280;73000;51.784;4.660;2023-12-04T10:27:00;100743.06;;;3.88;67.04
83118;BME280;73000;51.784;4.660;2023-12-04T10:29:40;100729.44;;;3.76;66.99
83118;BME280;73000;51.784;4.660;2023-12-04T10:32:10;100728.53;;;3.71;65.38
83118;BME280;73000;51.784;4.660;2023-12-04T10:34:36;100734.94;;;3.93;66.42
83118;BME280;73000;51.784;4.660;2023-12-04T10:37:07;100711.88;;;3.89;66.53
83118;BME280;73000;51.784;4.660;2023-12-04T10:39:46;100687.19;;;3.84;66.14
83118;BME280;73000;51.784;4.660;2023-12-04T10:42:23;100680.47;;;3.91;67.28
83118;BME280;73000;51.784;4.660;2023-12-04T10:44:51;100704.75;;;4.21;66.88
83118;BME280;73000;51.784;4.660;2023-12-04T10:47:19;100700.44;;;4.25;66.66
83118;BME280;73000;51.784;4.660;2023-12-04T10:49:49;100674.81;;;4.15;65.82
83118;BME280;73000;51.784;4.660;2023-12-04T10:52:16;100713.75;;;4.38;66.87
83118;BME280;73000;51.784;4.660;2023-12-04T10:54:44;100696.13;;;4.29;66.04
83118;BME280;73000;51.784;4.660;2023-12-04T10:57:16;100701.47;;;4.41;66.81
83118;BME280;73000;51.784;4.660;2023-12-04T10:59:51;100698.22;;;4.44;65.89
83118;BME280;73000;51.784;4.660;2023-12-04T11:02:26;100685.63;;;4.43;65.04
83118;BME280;73000;51.784;4.660;2023-12-04T11:04:55;100696.25;;;4.39;65.38
83118;BME280;73000;51.784;4.660;2023-12-04T11:07:27;100678.03;;;4.28;66.58
83118;BME280;73000;51.784;4.660;2023-12-04T11:09:56;100679.03;;;4.22;64.59
83118;BME280;73000;51.784;4.660;2023-12-04T11:12:28;100640.50;;;3.90;65.23
83118;BME280;73000;51.784;4.660;2023-12-04T11:14:59;100678.53;;;4.25;66.08
83118;BME280;73000;51.784;4.660;2023-12-04T11:17:30;100691.09;;;4.43;67.60
83118;BME280;73000;51.784;4.660;2023-12-04T11:20:11;100648.13;;;4.05;66.73
83118;BME280;73000;51.784;4.660;2023-12-04T11:22:39;100674.97;;;4.25;67.57
83118;BME280;73000;51.784;4.660;2023-12-04T11:25:11;100655.66;;;4.15;67.07
83118;BME280;73000;51.784;4.660;2023-12-04T11:27:41;100650.34;;;4.08;67.70
83118;BME280;73000;51.784;4.660;2023-12-04T11:30:08;100660.50;;;4.08;67.11
83118;BME280;73000;51.784;4.660;2023-12-04T11:32:59;100637.44;;;4.04;66.35
83118;BME280;73000;51.784;4.660;2023-12-04T11:35:28;100667.19;;;4.17;66.96
83118;BME280;73000;51.784;4.660;2023-12-04T11:37:56;100660.97;;;4.21;67.58
83118;BME280;73000;51.784;4.660;2023-12-04T11:40:22;100642.63;;;4.05;68.40
83118;BME280;73000;51.784;4.660;2023-12-04T11:42:54;100625.69;;;3.86;69.70
83118;BME280;73000;51.784;4.660;2023-12-04T11:45:20;100592.63;;;3.71;70.46
83118;BME280;73000;51.784;4.660;2023-12-04T11:47:56;100607.28;;;3.82;70.76
83118;BME280;73000;51.784;4.660;2023-12-04T11:50:26;100610.09;;;4.04;70.61
83118;BME280;73000;51.784;4.660;2023-12-04T11:52:52;100608.59;;;3.96;70.69
83118;BME280;73000;51.784;4.660;2023-12-04T11:55:22;100618.16;;;4.15;71.83
83118;BME280;73000;51.784;4.660;2023-12-04T11:57:50;100613.03;;;4.19;71.96
83118;BME280;73000;51.784;4.660;2023-12-04T12:03:01;100602.97;;;4.24;71.81
83118;BME280;73000;51.784;4.660;2023-12-04T12:05:27;100605.06;;;4.17;70.29
83118;BME280;73000;51.784;4.660;2023-12-04T12:07:55;100594.63;;;4.14;72.68
83118;BME280;73000;51.784;4.660;2023-12-04T12:10:21;100585.47;;;4.04;71.83
83118;BME280;73000;51.784;4.660;2023-12-04T12:12:47;100585.84;;;4.12;72.00
83118;BME280;73000;51.784;4.660;2023-12-04T12:15:14;100594.44;;;4.21;72.70
83118;BME280;73000;51.784;4.660;2023-12-04T12:17:40;100585.84;;;4.12;72.67
83118;BME280;73000;51.784;4.660;2023-12-04T12:20:14;100580.56;;;4.06;73.32
83118;BME280;73000;51.784;4.660;2023-12-04T12:22:40;100566.13;;;4.10;72.86
83118;BME280;73000;51.784;4.660;2023-12-04T12:25:09;100578.41;;;4.08;73.35
83118;BME280;73000;51.784;4.660;2023-12-04T12:27:41;100571.34;;;4.12;73.27
83118;BME280;73000;51.784;4.660;2023-12-04T12:30:08;100571.25;;;4.07;73.89
83118;BME280;73000;51.784;4.660;2023-12-04T12:32:34;100575.78;;;4.18;73.98
83118;BME280;73000;51.784;4.660;2023-12-04T12:35:00;100554.38;;;4.15;74.22
83118;BME280;73000;51.784;4.660;2023-12-04T12:37:28;100552.13;;;4.28;74.50
83118;BME280;73000;51.784;4.660;2023-12-04T12:39:54;100544.66;;;4.24;74.49
83118;BME280;73000;51.784;4.660;2023-12-04T12:42:21;100550.69;;;4.26;74.30
83118;BME280;73000;51.784;4.660;2023-12-04T12:44:47;100559.94;;;4.20;74.87
83118;BME280;73000;51.784;4.660;2023-12-04T12:47:14;100557.66;;;4.12;74.34
83118;BME280;73000;51.784;4.660;2023-12-04T12:49:40;100556.13;;;4.21;75.23
83118;BME280;73000;51.784;4.660;2023-12-04T12:52:05;100556.56;;;4.13;75.14
83118;BME280;73000;51.784;4.660;2023-12-04T12:54:45;100547.34;;;4.19;75.68
83118;BME280;73000;51.784;4.660;2023-12-04T12:57:11;100551.03;;;4.29;76.35
83118;BME280;73000;51.784;4.660;2023-12-04T12:59:38;100549.69;;;4.10;76.35
83118;BME280;73000;51.784;4.660;2023-12-04T13:02:04;100533.13;;;4.00;76.34
83118;BME280;73000;51.784;4.660;2023-12-04T13:04:42;100541.78;;;4.14;76.54
83118;BME280;73000;51.784;4.660;2023-12-04T13:07:07;100526.72;;;4.11;76.11
83118;BME280;73000;51.784;4.660;2023-12-04T13:09:35;100535.06;;;4.21;75.84
83118;BME280;73000;51.784;4.660;2023-12-04T13:12:02;100523.59;;;4.24;76.45
83118;BME280;73000;51.784;4.660;2023-12-04T13:14:28;100514.06;;;4.27;76.38
83118;BME280;73000;51.784;4.660;2023-12-04T13:16:53;100501.59;;;4.14;76.10
83118;BME280;73000;51.784;4.660;2023-12-04T13:19:20;100500.25;;;4.17;75.83
83118;BME280;73000;51.784;4.660;2023-12-04T13:21:45;100496.13;;;4.14;76.48
83118;BME280;73000;51.784;4.660;2023-12-04T13:24:10;100485.94;;;4.10;76.31
83118;BME280;73000;51.784;4.660;2023-12-04T13:26:37;100483.81;;;4.17;76.50
83118;BME280;73000;51.784;4.660;2023-12-04T13:29:02;100481.22;;;4.05;75.95
83118;BME280;73000;51.784;4.660;2023-12-04T13:31:28;100470.00;;;4.07;76.59
83118;BME280;73000;51.784;4.660;2023-12-04T13:33:53;100471.34;;;4.04;76.29
83118;BME280;73000;51.784;4.660;2023-12-04T13:36:18;100456.22;;;3.97;76.73
83118;BME280;73000;51.784;4.660;2023-12-04T13:38:45;100461.13;;;3.94;76.59
83118;BME280;73000;51.784;4.660;2023-12-04T13:41:10;100466.59;;;3.94;76.47
83118;BME280;73000;51.784;4.660;2023-12-04T13:43:54;100450.88;;;3.85;76.49
83118;BME280;73000;51.784;4.660;2023-12-04T13:46:21;100460.03;;;3.95;77.12
83118;BME280;73000;51.784;4.660;2023-12-04T13:48:48;100449.09;;;3.95;77.35
83118;BME280;73000;51.784;4.660;2023-12-04T13:51:14;100435.81;;;3.82;77.47
83118;BME280;73000;51.784;4.660;2023-12-04T13:53:39;100439.97;;;3.90;77.19
83118;BME280;73000;51.784;4.660;2023-12-04T13:56:10;100449.09;;;3.95;77.27
83118;BME280;73000;51.784;4.660;2023-12-04T13:58:48;100443.06;;;3.93;77.68
83118;BME280;73000;51.784;4.660;2023-12-04T14:01:25;100441.22;;;3.99;77.78
83118;BME280;73000;51.784;4.660;2023-12-04T14:03:54;100436.00;;;3.97;78.33
83118;BME280;73000;51.784;4.660;2023-12-04T14:06:21;100438.41;;;3.94;78.41
83118;BME280;73000;51.784;4.660;2023-12-04T14:08:46;100435.94;;;3.92;79.08
83118;BME280;73000;51.784;4.660;2023-12-04T14:11:12;100433.38;;;3.86;79.55
83118;BME280;73000;51.784;4.660;2023-12-04T14:13:39;100426.50;;;3.83;80.08
83118;BME280;73000;51.784;4.660;2023-12-04T14:16:05;100427.81;;;3.76;80.32
83118;BME280;73000;51.784;4.660;2023-12-04T14:18:33;100421.28;;;3.82;80.63
83118;BME280;73000;51.784;4.660;2023-12-04T14:20:59;100419.50;;;3.71;80.89
83118;BME280;73000;51.784;4.660;2023-12-04T14:23:27;100424.22;;;3.75;81.09
83118;BME280;73000;51.784;4.660;2023-12-04T14:25:52;100420.72;;;3.80;81.00
83118;BME280;73000;51.784;4.660;2023-12-04T14:28:17;100413.09;;;3.60;81.27
83118;BME280;73000;51.784;4.660;2023-12-04T14:30:45;100413.16;;;3.65;81.87
83118;BME280;73000;51.784;4.660;2023-12-04T14:33:10;100408.50;;;3.66;81.97
83118;BME280;73000;51.784;4.660;2023-12-04T14:35:37;100409.28;;;3.61;81.75
83118;BME280;73000;51.784;4.660;2023-12-04T14:38:05;100400.38;;;3.49;81.88
83118;BME280;73000;51.784;4.660;2023-12-04T14:40:31;100404.50;;;3.52;82.50
83118;BME280;73000;51.784;4.660;2023-12-04T14:43:05;100409.34;;;3.45;82.39
83118;BME280;73000;51.784;4.660;2023-12-04T14:45:35;100393.00;;;3.50;82.83
83118;BME280;73000;51.784;4.660;2023-12-04T14:48:01;100396.38;;;3.57;82.74
83118;BME280;73000;51.784;4.660;2023-12-04T14:50:26;100394.66;;;3.51;82.55
83118;BME280;73000;51.784;4.660;2023-12-04T14:52:52;100390.47;;;3.43;83.03
83118;BME280;73000;51.784;4.660;2023-12-04T14:55:20;100395.25;;;3.53;82.89
83118;BME280;73000;51.784;4.660;2023-12-04T14:57:50;100399.66;;;3.37;83.56
83118;BME280;73000;51.784;4.660;2023-12-04T15:00:34;100396.19;;;3.42;83.96
83118;BME280;73000;51.784;4.660;2023-12-04T15:03:24;100379.94;;;3.35;83.63
83118;BME280;73000;51.784;4.660;2023-12-04T15:06:08;100379.81;;;3.25;84.19
83118;BME280;73000;51.784;4.660;2023-12-04T15:08:36;100378.94;;;3.20;84.26
83118;BME280;73000;51.784;4.660;2023-12-04T15:11:02;100371.69;;;3.30;84.44
83118;BME280;73000;51.784;4.660;2023-12-04T15:14:03;100376.91;;;3.32;84.03
83118;BME280;73000;51.784;4.660;2023-12-04T15:16:34;100368.06;;;3.25;84.54
83118;BME280;73000;51.784;4.660;2023-12-04T15:18:59;100358.66;;;3.16;84.57
83118;BME280;73000;51.784;4.660;2023-12-04T15:21:31;100356.44;;;3.13;84.94
83118;BME280;73000;51.784;4.660;2023-12-04T15:23:56;100363.38;;;3.20;85.19
83118;BME280;73000;51.784;4.660;2023-12-04T15:26:29;100358.72;;;3.21;84.68
83118;BME280;73000;51.784;4.660;2023-12-04T15:28:55;100363.78;;;3.12;85.26
83118;BME280;73000;51.784;4.660;2023-12-04T15:31:21;100359.59;;;3.05;85.72
83118;BME280;73000;51.784;4.660;2023-12-04T15:33:47;100346.00;;;3.10;85.84
83118;BME280;73000;51.784;4.660;2023-12-04T15:36:15;100353.28;;;3.04;85.91
83118;BME280;73000;51.784;4.660;2023-12-04T15:38:42;100353.75;;;3.18;86.04
83118;BME280;73000;51.784;4.660;2023-12-04T15:41:09;100353.19;;;3.16;85.56
83118;BME280;73000;51.784;4.660;2023-12-04T15:43:42;100355.44;;;3.19;85.42
83118;BME280;73000;51.784;4.660;2023-12-04T15:46:10;100343.91;;;3.17;85.07
83118;BME280;73000;51.784;4.660;2023-12-04T15:48:35;100346.44;;;3.02;85.95
83118;BME280;73000;51.784;4.660;2023-12-04T15:51:01;100348.16;;;3.08;86.13
83118;BME280;73000;51.784;4.660;2023-12-04T15:53:42;100336.16;;;3.09;85.93
83118;BME280;73000;51.784;4.660;2023-12-04T15:56:09;100339.97;;;3.08;86.44
83118;BME280;73000;51.784;4.660;2023-12-04T15:58:35;100338.28;;;3.07;85.75
83118;BME280;73000;51.784;4.660;2023-12-04T16:01:03;100333.41;;;3.09;85.71
83118;BME280;73000;51.784;4.660;2023-12-04T16:03:31;100331.56;;;2.93;86.27
83118;BME280;73000;51.784;4.660;2023-12-04T16:05:59;100329.63;;;2.93;86.02
83118;BME280;73000;51.784;4.660;2023-12-04T16:08:25;100317.22;;;3.02;86.38
83118;BME280;73000;51.784;4.660;2023-12-04T16:10:53;100319.88;;;2.97;86.83
83118;BME280;73000;51.784;4.660;2023-12-04T16:13:19;100316.72;;;3.05;86.38
83118;BME280;73000;51.784;4.660;2023-12-04T16:15:45;100311.91;;;2.96;86.94
83118;BME280;73000;51.784;4.660;2023-12-04T16:18:13;100304.75;;;2.90;87.09
83118;BME280;73000;51.784;4.660;2023-12-04T16:20:38;100310.38;;;3.00;86.91
83118;BME280;73000;51.784;4.660;2023-12-04T16:23:04;100310.63;;;2.98;86.74
83118;BME280;73000;51.784;4.660;2023-12-04T16:25:33;100302.97;;;3.00;86.43
83118;BME280;73000;51.784;4.660;2023-12-04T16:27:59;100312.81;;;3.01;86.96
83118;BME280;73000;51.784;4.660;2023-12-04T16:30:27;100311.41;;;2.99;87.20
83118;BME280;73000;51.784;4.660;2023-12-04T16:32:53;100298.69;;;2.88;87.27
83118;BME280;73000;51.784;4.660;2023-12-04T16:35:21;100302.66;;;2.97;86.95
83118;BME280;73000;51.784;4.660;2023-12-04T16:37:47;100290.91;;;2.96;87.31
83118;BME280;73000;51.784;4.660;2023-12-04T16:40:16;100295.13;;;3.04;87.30
83118;BME280;73000;51.784;4.660;2023-12-04T16:42:42;100282.47;;;2.98;86.48
83118;BME280;73000;51.784;4.660;2023-12-04T16:47:57;100247.13;;;2.70;86.96
83118;BME280;73000;51.784;4.660;2023-12-04T16:50:46;100268.09;;;2.86;86.99
83118;BME280;73000;51.784;4.660;2023-12-04T16:53:22;100283.34;;;3.03;87.32
83118;BME280;73000;51.784;4.660;2023-12-04T16:55:53;100293.28;;;3.09;87.31
83118;BME280;73000;51.784;4.660;2023-12-04T16:58:30;100284.06;;;3.15;87.29
83118;BME280;73000;51.784;4.660;2023-12-04T17:01:19;100274.41;;;3.08;87.10
83118;BME280;73000;51.784;4.660;2023-12-04T17:04:03;100266.31;;;2.96;87.05
83118;BME280;73000;51.784;4.660;2023-12-04T17:07:12;100249.19;;;3.01;86.81
83118;BME280;73000;51.784;4.660;2023-12-04T17:10:01;100223.28;;;2.82;87.09
83118;BME280;73000;51.784;4.660;2023-12-04T17:12:27;100269.75;;;3.08;86.56
83118;BME280;73000;51.784;4.660;2023-12-04T17:15:01;100223.97;;;2.72;86.91
83118;BME280;73000;51.784;4.660;2023-12-04T17:17:34;100265.06;;;3.04;86.87
83118;BME280;73000;51.784;4.660;2023-12-04T17:20:10;100273.69;;;2.96;87.01
83118;BME280;73000;51.784;4.660;2023-12-04T17:22:41;100234.88;;;2.72;87.02
83118;BME280;73000;51.784;4.660;2023-12-04T17:25:22;100234.03;;;2.72;87.73
83118;BME280;73000;51.784;4.660;2023-12-04T17:28:06;100267.41;;;2.95;87.60
83118;BME280;73000;51.784;4.660;2023-12-04T17:30:54;100246.69;;;2.78;88.00
83118;BME280;73000;51.784;4.660;2023-12-04T17:33:27;100252.81;;;2.85;87.26
83118;BME280;73000;51.784;4.660;2023-12-04T17:35:53;100258.81;;;2.87;87.52
83118;BME280;73000;51.784;4.660;2023-12-04T17:38:19;100249.00;;;2.86;87.82
83118;BME280;73000;51.784;4.660;2023-12-04T17:40:51;100259.97;;;2.91;87.84
83118;BME280;73000;51.784;4.660;2023-12-04T17:43:27;100240.34;;;2.94;87.43
83118;BME280;73000;51.784;4.660;2023-12-04T17:45:55;100258.97;;;2.97;87.41
83118;BME280;73000;51.784;4.660;2023-12-04T17:48:24;100230.69;;;2.86;87.30
83118;BME280;73000;51.784;4.660;2023-12-04T17:50:49;100250.69;;;2.92;87.63
83118;BME280;73000;51.784;4.660;2023-12-04T17:53:20;100255.66;;;2.95;87.39
83118;BME280;73000;51.784;4.660;2023-12-04T17:55:46;100222.78;;;2.85;87.35
83118;BME280;73000;51.784;4.660;2023-12-04T17:58:15;100229.44;;;2.94;87.69
83118;BME280;73000;51.784;4.660;2023-12-04T18:00:45;100207.38;;;2.79;87.77
83118;BME280;73000;51.784;4.660;2023-12-04T18:03:15;100218.56;;;2.77;87.75
83118;BME280;73000;51.784;4.660;2023-12-04T18:05:42;100188.59;;;2.61;88.03
83118;BME280;73000;51.784;4.660;2023-12-04T18:08:14;100182.63;;;2.64;88.00
83118;BME280;73000;51.784;4.660;2023-12-04T18:10:42;100187.59;;;2.67;87.71
83118;BME280;73000;51.784;4.660;2023-12-04T18:13:09;100220.72;;;2.97;87.74
83118;BME280;73000;51.784;4.660;2023-12-04T18:15:35;100191.59;;;2.81;88.20
83118;BME280;73000;51.784;4.660;2023-12-04T18:18:02;100194.38;;;2.86;87.97
83118;BME280;73000;51.784;4.660;2023-12-04T18:20:27;100154.50;;;2.63;87.87
83118;BME280;73000;51.784;4.660;2023-12-04T18:22:56;100199.84;;;2.86;88.23
83118;BME280;73000;51.784;4.660;2023-12-04T18:25:25;100167.78;;;2.55;87.69
83118;BME280;73000;51.784;4.660;2023-12-04T18:28:09;100221.50;;;2.92;88.63
83118;BME280;73000;51.784;4.660;2023-12-04T18:30:45;100156.63;;;2.56;88.43
83118;BME280;73000;51.784;4.660;2023-12-04T18:33:10;100213.78;;;2.89;88.10
83118;BME280;73000;51.784;4.660;2023-12-04T18:35:36;100172.53;;;2.64;88.36
83118;BME280;73000;51.784;4.660;2023-12-04T18:38:09;100170.06;;;2.63;88.08
83118;BME280;73000;51.784;4.660;2023-12-04T18:40:36;100161.78;;;2.58;87.95
83118;BME280;73000;51.784;4.660;2023-12-04T18:43:02;100198.19;;;2.85;88.55
83118;BME280;73000;51.784;4.660;2023-12-04T18:45:34;100173.44;;;2.70;88.56
83118;BME280;73000;51.784;4.660;2023-12-04T18:48:01;100187.19;;;2.80;88.15
83118;BME280;73000;51.784;4.660;2023-12-04T18:50:29;100193.78;;;2.84;88.33
83118;BME280;73000;51.784;4.660;2023-12-04T18:52:57;100191.00;;;2.79;88.20